createdAt,value
2022-08-30T00:01:46.739Z,16.36
2022-08-30T00:03:52.127Z,16.19
2022-08-30T00:05:56.339Z,17.01
2022-08-30T00:07:59.895Z,16.26
2022-08-30T00:10:03.832Z,16.47
2022-08-30T00:12:06.667Z,16.84
2022-08-30T00:14:09.266Z,16.73
2022-08-30T00:16:12.536Z,16.16
2022-08-30T00:18:18.236Z,16.76
2022-08-30T00:20:25.907Z,16.88
2022-08-30T00:22:28.485Z,16.72
2022-08-30T00:24:31.107Z,16.70
2022-08-30T00:26:33.670Z,16.96
2022-08-30T00:28:37.421Z,16.91
2022-08-30T00:30:40.720Z,17.01
2022-08-30T00:32:43.724Z,16.81
2022-08-30T00:34:46.301Z,16.63
2022-08-30T00:36:48.961Z,16.85
2022-08-30T00:38:51.517Z,16.13
2022-08-30T00:40:54.307Z,16.67
2022-08-30T00:42:59.943Z,16.80
2022-08-30T00:45:14.827Z,16.78
2022-08-30T00:47:18.470Z,16.16
2022-08-30T00:49:21.085Z,15.79
2022-08-30T00:51:26.056Z,15.93
2022-08-30T00:53:35.047Z,16.68
2022-08-30T00:55:38.988Z,16.48
2022-08-30T00:57:47.083Z,16.57
2022-08-30T00:59:51.003Z,16.30
2022-08-30T01:01:53.987Z,15.86
2022-08-30T01:03:56.856Z,16.43
2022-08-30T01:06:03.193Z,16.53
2022-08-30T01:08:06.310Z,16.52
2022-08-30T01:10:12.443Z,16.12
2022-08-30T01:12:15.021Z,16.42
2022-08-30T01:14:22.156Z,16.44
2022-08-30T01:16:32.573Z,16.76
2022-08-30T01:18:36.275Z,16.57
2022-08-30T01:21:40.296Z,16.85
2022-08-30T01:23:47.469Z,16.91
2022-08-30T01:25:50.854Z,16.24
2022-08-30T01:28:04.140Z,16.97
2022-08-30T01:30:08.284Z,16.89
2022-08-30T01:32:29.178Z,17.10
2022-08-30T01:34:32.114Z,16.51
2022-08-30T01:36:37.745Z,17.17
2022-08-30T01:38:54.965Z,17.17
2022-08-30T01:41:35.082Z,17.07
2022-08-30T01:43:37.877Z,15.87
2022-08-30T01:45:41.130Z,16.87
2022-08-30T01:47:43.867Z,17.01
2022-08-30T01:49:48.078Z,17.16
2022-08-30T01:52:00.548Z,17.01
2022-08-30T01:54:04.545Z,17.14
2022-08-30T01:56:08.871Z,17.07
2022-08-30T01:58:11.751Z,16.85
2022-08-30T02:00:14.963Z,16.38
2022-08-30T02:02:21.916Z,16.94
2022-08-30T02:04:26.480Z,16.74
2022-08-30T02:06:29.368Z,16.86
2022-08-30T02:08:31.999Z,16.87
2022-08-30T02:10:37.230Z,16.74
2022-08-30T02:12:39.794Z,16.08
2022-08-30T02:14:42.526Z,16.05
2022-08-30T02:16:47.438Z,16.07
2022-08-30T02:18:52.281Z,16.21
2022-08-30T02:20:54.872Z,16.19
2022-08-30T02:23:01.159Z,16.72
2022-08-30T02:25:07.141Z,16.79
2022-08-30T02:27:21.035Z,16.56
2022-08-30T02:29:24.758Z,16.77
2022-08-30T02:31:27.337Z,16.73
2022-08-30T02:33:30.019Z,16.16
2022-08-30T02:35:32.645Z,16.27
2022-08-30T02:37:35.692Z,15.97
2022-08-30T02:39:38.312Z,16.73
2022-08-30T02:41:42.005Z,16.02
2022-08-30T02:43:44.640Z,16.57
2022-08-30T02:45:47.471Z,16.49
2022-08-30T02:47:50.258Z,16.65
2022-08-30T02:49:54.903Z,16.61
2022-08-30T02:51:57.671Z,16.59
2022-08-30T02:54:00.305Z,16.70
2022-08-30T02:56:03.298Z,16.03
2022-08-30T02:58:06.770Z,16.42
2022-08-30T03:00:13.429Z,16.70
2022-08-30T03:02:16.914Z,16.25
2022-08-30T03:04:26.668Z,16.79
2022-08-30T03:06:29.682Z,15.99
2022-08-30T03:08:33.036Z,16.86
2022-08-30T03:10:36.174Z,16.78
2022-08-30T03:12:38.775Z,16.04
2022-08-30T03:14:41.398Z,16.42
2022-08-30T03:16:43.984Z,16.25
2022-08-30T03:18:46.697Z,16.31
2022-08-30T03:20:54.524Z,17.01
2022-08-30T03:22:57.382Z,16.48
2022-08-30T03:25:01.498Z,16.86
2022-08-30T03:27:04.341Z,16.78
2022-08-30T03:29:07.196Z,16.39
2022-08-30T03:31:10.510Z,16.36
2022-08-30T03:33:13.340Z,16.50
2022-08-30T03:35:24.213Z,16.21
2022-08-30T03:37:27.853Z,16.20
2022-08-30T03:39:30.572Z,16.84
2022-08-30T03:41:33.797Z,16.77
2022-08-30T03:43:36.888Z,16.92
2022-08-30T03:45:39.826Z,16.91
2022-08-30T03:47:42.949Z,16.37
2022-08-30T03:49:45.597Z,16.09
2022-08-30T03:51:48.710Z,16.91
2022-08-30T03:53:51.352Z,16.94
2022-08-30T03:55:54.187Z,16.26
2022-08-30T03:57:58.040Z,16.69
2022-08-30T04:00:00.813Z,16.26
2022-08-30T04:02:14.107Z,16.65
2022-08-30T04:04:20.736Z,16.11
2022-08-30T04:06:24.399Z,16.41
2022-08-30T04:08:27.437Z,16.68
2022-08-30T04:10:30.063Z,16.44
2022-08-30T04:12:32.640Z,16.39
2022-08-30T04:14:35.247Z,16.84
2022-08-30T04:16:37.890Z,16.45
2022-08-30T04:18:40.641Z,16.39
2022-08-30T04:20:43.587Z,16.66
2022-08-30T04:22:46.500Z,16.80
2022-08-30T04:24:49.296Z,16.48
2022-08-30T04:26:51.951Z,16.48
2022-08-30T04:28:58.278Z,16.00
2022-08-30T04:31:01.738Z,15.95
2022-08-30T04:33:04.367Z,16.55
2022-08-30T04:35:07.667Z,16.46
2022-08-30T04:37:10.382Z,15.55
2022-08-30T04:39:13.237Z,16.26
2022-08-30T04:41:19.527Z,16.62
2022-08-30T04:43:22.166Z,15.77
2022-08-30T04:45:24.860Z,16.75
2022-08-30T04:47:27.617Z,16.09
2022-08-30T04:49:32.991Z,16.19
2022-08-30T04:51:35.590Z,16.14
2022-08-30T04:53:38.183Z,16.78
2022-08-30T04:55:42.105Z,16.96
2022-08-30T04:57:51.210Z,16.68
2022-08-30T04:59:54.642Z,17.00
2022-08-30T05:01:57.260Z,17.33
2022-08-30T05:04:00.326Z,17.36
2022-08-30T05:06:03.292Z,17.43
2022-08-30T05:08:11.600Z,16.86
2022-08-30T05:10:29.705Z,17.62
2022-08-30T05:12:32.314Z,17.81
2022-08-30T05:14:34.904Z,17.96
2022-08-30T05:16:37.827Z,18.14
2022-08-30T05:18:40.514Z,18.31
2022-08-30T05:20:43.872Z,18.39
2022-08-30T05:22:53.671Z,18.50
2022-08-30T05:24:56.959Z,18.59
2022-08-30T05:27:08.438Z,18.49
2022-08-30T05:29:11.028Z,18.50
2022-08-30T05:31:36.395Z,18.72
2022-08-30T05:33:39.096Z,18.15
2022-08-30T05:35:41.760Z,18.74
2022-08-30T05:37:44.814Z,18.73
2022-08-30T05:39:51.191Z,18.05
2022-08-30T05:41:57.836Z,18.72
2022-08-30T05:44:09.342Z,19.00
2022-08-30T05:46:14.801Z,18.87
2022-08-30T05:48:17.618Z,19.01
2022-08-30T05:50:20.629Z,18.27
2022-08-30T05:52:23.285Z,19.06
2022-08-30T05:54:25.870Z,19.38
2022-08-30T05:56:35.262Z,19.52
2022-08-30T05:58:38.522Z,18.94
2022-08-30T06:00:42.190Z,19.17
2022-08-30T06:02:45.005Z,19.18
2022-08-30T06:04:47.683Z,19.84
2022-08-30T06:06:50.290Z,19.40
2022-08-30T06:08:55.714Z,19.94
2022-08-30T06:10:58.433Z,20.19
2022-08-30T06:13:01.060Z,19.47
2022-08-30T06:15:04.180Z,19.25
2022-08-30T06:17:07.644Z,19.45
2022-08-30T06:19:15.070Z,20.35
2022-08-30T06:21:30.472Z,20.44
2022-08-30T06:23:33.387Z,20.40
2022-08-30T06:25:41.116Z,20.50
2022-08-30T06:27:44.929Z,20.39
2022-08-30T06:29:52.384Z,20.07
2022-08-30T06:31:57.456Z,20.73
2022-08-30T06:34:00.481Z,20.98
2022-08-30T06:36:12.815Z,20.94
2022-08-30T06:38:15.609Z,20.74
2022-08-30T06:40:21.793Z,21.08
2022-08-30T06:42:30.634Z,21.22
2022-08-30T06:44:33.356Z,21.06
2022-08-30T06:46:39.078Z,21.50
2022-08-30T06:48:57.216Z,21.35
2022-08-30T06:51:00.002Z,21.80
2022-08-30T06:53:05.930Z,21.32
2022-08-30T06:55:11.452Z,22.13
2022-08-30T06:57:14.175Z,22.16
2022-08-30T06:59:17.712Z,22.27
2022-08-30T07:01:25.959Z,22.34
2022-08-30T07:03:28.656Z,21.61
2022-08-30T07:05:31.461Z,21.94
2022-08-30T07:07:34.953Z,22.49
2022-08-30T07:09:43.274Z,22.71
2022-08-30T07:11:45.963Z,22.29
2022-08-30T07:13:48.581Z,22.34
2022-08-30T07:15:52.308Z,22.65
2022-08-30T07:18:13.329Z,22.27
2022-08-30T07:20:16.354Z,22.18
2022-08-30T07:22:18.938Z,22.59
2022-08-30T07:24:22.476Z,22.28
2022-08-30T07:26:55.476Z,22.83
2022-08-30T07:28:58.103Z,22.63
2022-08-30T07:31:01.013Z,21.94
2022-08-30T07:33:04.069Z,22.75
2022-08-30T07:35:07.069Z,22.62
2022-08-30T07:37:09.803Z,22.92
2022-08-30T07:39:20.892Z,22.80
2022-08-30T07:41:30.329Z,22.53
2022-08-30T07:43:34.077Z,23.03
2022-08-30T07:45:38.509Z,22.27
2022-08-30T07:47:41.579Z,22.74
2022-08-30T07:49:44.183Z,22.90
2022-08-30T07:51:46.767Z,22.82
2022-08-30T07:53:57.417Z,23.30
2022-08-30T07:56:00.033Z,23.06
2022-08-30T08:00:10.795Z,23.58
2022-08-30T08:02:16.421Z,23.36
2022-08-30T08:04:19.597Z,23.35
2022-08-30T08:06:23.574Z,23.29
2022-08-30T08:08:26.200Z,23.13
2022-08-30T08:10:28.875Z,22.94
2022-08-30T08:12:31.754Z,22.74
2022-08-30T08:14:34.943Z,22.76
2022-08-30T08:16:38.260Z,22.81
2022-08-30T08:18:40.828Z,22.20
2022-08-30T08:20:43.419Z,22.34
2022-08-30T08:22:46.087Z,22.80
2022-08-30T08:24:49.709Z,22.40
2022-08-30T08:26:52.293Z,22.51
2022-08-30T08:28:55.845Z,23.33
2022-08-30T08:30:58.424Z,23.26
2022-08-30T08:33:01.806Z,23.25
2022-08-30T08:35:04.911Z,23.70
2022-08-30T08:37:07.458Z,23.10
2022-08-30T08:39:10.363Z,23.42
2022-08-30T08:41:52.224Z,23.15
2022-08-30T08:43:54.928Z,23.00
2022-08-30T08:46:28.797Z,23.36
2022-08-30T08:49:22.569Z,23.17
2022-08-30T08:51:50.672Z,22.78
2022-08-30T08:54:34.302Z,22.67
2022-08-30T08:56:37.769Z,22.02
2022-08-30T08:59:08.420Z,21.94
2022-08-30T09:01:13.893Z,22.18
2022-08-30T09:03:18.957Z,21.90
2022-08-30T09:05:26.079Z,22.11
2022-08-30T09:07:37.460Z,22.04
2022-08-30T09:09:41.553Z,21.89
2022-08-30T09:11:44.555Z,21.74
2022-08-30T09:13:47.256Z,22.07
2022-08-30T09:18:19.348Z,22.01
2022-08-30T09:20:45.835Z,23.08
2022-08-30T09:22:48.484Z,22.63
2022-08-30T09:25:18.073Z,23.83
2022-08-30T09:27:40.026Z,24.16
2022-08-30T09:29:59.193Z,24.44
2022-08-30T09:32:22.572Z,24.42
2022-08-30T09:34:24.406Z,24.37
2022-08-30T09:36:32.910Z,24.17
2022-08-30T09:38:35.995Z,24.24
2022-08-30T09:40:51.991Z,24.45
2022-08-30T09:43:17.435Z,24.39
2022-08-30T09:45:36.559Z,24.39
2022-08-30T09:47:43.216Z,24.35
2022-08-30T09:49:45.884Z,23.70
2022-08-30T09:52:01.942Z,24.04
2022-08-30T09:55:20.731Z,24.05
2022-08-30T09:58:30.033Z,24.08
2022-08-30T10:00:41.365Z,24.08
2022-08-30T10:03:11.981Z,24.37
2022-08-30T10:05:58.685Z,24.58
2022-08-30T10:08:19.628Z,24.57
2022-08-30T10:10:34.294Z,24.99
2022-08-30T10:13:46.330Z,25.18
2022-08-30T10:15:58.782Z,25.28
2022-08-30T10:18:23.637Z,25.26
2022-08-30T10:20:31.998Z,24.50
2022-08-30T10:22:46.612Z,25.15
2022-08-30T10:25:00.786Z,25.01
2022-08-30T10:27:32.530Z,25.25
2022-08-30T10:30:05.966Z,25.31
2022-08-30T10:32:24.950Z,25.32
2022-08-30T10:34:49.669Z,25.28
2022-08-30T10:37:13.694Z,25.60
2022-08-30T10:39:32.341Z,25.86
2022-08-30T10:41:41.837Z,25.93
2022-08-30T10:43:53.850Z,26.28
2022-08-30T10:46:02.598Z,26.21
2022-08-30T10:48:20.423Z,26.23
2022-08-30T10:50:37.130Z,26.11
2022-08-30T10:52:53.282Z,25.78
2022-08-30T10:55:36.848Z,25.58
2022-08-30T10:58:31.842Z,25.43
2022-08-30T11:01:16.192Z,25.20
2022-08-30T11:03:42.989Z,25.25
2022-08-30T11:06:26.286Z,25.27
2022-08-30T11:09:09.352Z,25.20
2022-08-30T11:11:51.481Z,25.09
2022-08-30T11:13:57.253Z,25.09
2022-08-30T11:16:06.880Z,24.46
2022-08-30T11:18:09.489Z,25.20
2022-08-30T11:20:42.979Z,24.84
2022-08-30T11:23:25.628Z,25.00
2022-08-30T11:26:03.080Z,24.64
2022-08-30T11:28:06.449Z,24.67
2022-08-30T11:30:27.423Z,24.81
2022-08-30T11:33:08.340Z,24.66
2022-08-30T11:35:50.054Z,24.53
2022-08-30T11:37:52.667Z,24.01
2022-08-30T11:40:01.916Z,24.50
2022-08-30T11:42:31.818Z,24.63
2022-08-30T11:44:34.772Z,24.63
2022-08-30T11:46:41.533Z,24.57
2022-08-30T11:49:01.416Z,24.58
2022-08-30T11:51:18.418Z,24.58
2022-08-30T11:53:34.187Z,24.75
2022-08-30T11:56:33.491Z,24.82
2022-08-30T11:58:48.204Z,24.83
2022-08-30T12:01:50.252Z,24.83
2022-08-30T12:04:15.193Z,24.65
2022-08-30T12:06:40.456Z,24.88
2022-08-30T12:08:55.140Z,24.74
2022-08-30T12:11:10.933Z,24.69
2022-08-30T12:13:53.868Z,24.53
2022-08-30T12:16:05.272Z,24.40
2022-08-30T12:18:29.427Z,24.46
2022-08-30T12:20:47.984Z,24.43
2022-08-30T12:22:52.356Z,24.29
2022-08-30T12:24:55.475Z,24.23
2022-08-30T12:26:59.118Z,24.12
2022-08-30T12:29:19.503Z,24.08
2022-08-30T12:31:26.716Z,24.13
2022-08-30T12:33:41.475Z,24.23
2022-08-30T12:35:44.834Z,23.75
2022-08-30T12:38:05.430Z,24.45
2022-08-30T12:40:22.303Z,24.29
2022-08-30T12:42:30.738Z,24.64
2022-08-30T12:44:34.062Z,24.65
2022-08-30T12:46:37.080Z,24.30
2022-08-30T12:48:40.932Z,24.54
2022-08-30T12:50:54.895Z,24.39
2022-08-30T12:53:13.966Z,24.70
2022-08-30T12:55:22.771Z,24.81
2022-08-30T12:58:00.900Z,24.01
2022-08-30T13:00:08.369Z,25.00
2022-08-30T13:02:27.689Z,24.69
2022-08-30T13:04:30.375Z,24.72
2022-08-30T13:06:50.936Z,25.10
2022-08-30T13:08:54.596Z,25.09
2022-08-30T13:11:15.767Z,25.30
2022-08-30T13:13:44.332Z,24.95
2022-08-30T13:15:49.443Z,25.06
2022-08-30T13:18:30.113Z,24.78
2022-08-30T13:20:32.894Z,24.93
2022-08-30T13:22:41.818Z,24.71
2022-08-30T13:24:44.779Z,24.64
2022-08-30T13:26:48.109Z,24.18
2022-08-30T13:29:01.386Z,24.60
2022-08-30T13:31:04.025Z,24.31
2022-08-30T13:33:10.063Z,24.72
2022-08-30T13:35:13.365Z,24.67
2022-08-30T13:39:45.625Z,25.00
2022-08-30T13:41:49.804Z,24.87
2022-08-30T13:44:11.681Z,25.18
2022-08-30T13:46:17.161Z,24.48
2022-08-30T13:48:25.222Z,24.54
2022-08-30T13:50:32.526Z,24.84
2022-08-30T13:52:35.195Z,24.76
2022-08-30T13:54:37.799Z,24.43
2022-08-30T13:56:40.830Z,24.72
2022-08-30T13:58:43.499Z,24.74
2022-08-30T14:00:49.494Z,24.80
2022-08-30T14:02:57.608Z,24.04
2022-08-30T14:05:03.424Z,24.66
2022-08-30T14:07:20.015Z,24.45
2022-08-30T14:09:23.505Z,23.90
2022-08-30T14:11:26.243Z,24.49
2022-08-30T14:13:29.462Z,23.26
2022-08-30T14:15:33.415Z,24.16
2022-08-30T14:17:36.125Z,24.09
2022-08-30T14:19:38.790Z,23.70
2022-08-30T14:21:42.446Z,24.08
2022-08-30T14:23:45.731Z,23.81
2022-08-30T14:25:48.313Z,24.05
2022-08-30T14:27:53.392Z,23.84
2022-08-30T14:29:57.324Z,23.93
2022-08-30T14:32:00.542Z,24.49
2022-08-30T14:34:04.191Z,24.61
2022-08-30T14:36:15.277Z,24.26
2022-08-30T14:38:18.693Z,24.56
2022-08-30T14:40:21.987Z,25.18
2022-08-30T14:42:24.665Z,24.66
2022-08-30T14:44:27.803Z,25.35
2022-08-30T14:46:30.506Z,25.40
2022-08-30T14:49:50.937Z,25.58
2022-08-30T14:51:53.843Z,25.52
2022-08-30T14:53:56.426Z,25.57
2022-08-30T14:55:58.987Z,25.14
2022-08-30T14:58:02.142Z,25.81
2022-08-30T15:00:12.640Z,25.34
2022-08-30T15:02:15.191Z,25.36
2022-08-30T15:04:18.512Z,25.40
2022-08-30T15:06:26.340Z,24.71
2022-08-30T15:08:29.339Z,24.86
2022-08-30T15:10:32.029Z,24.17
2022-08-30T15:12:35.299Z,25.04
2022-08-30T15:14:37.952Z,24.93
2022-08-30T15:16:41.084Z,24.32
2022-08-30T15:18:44.016Z,24.39
2022-08-30T15:20:50.648Z,24.71
2022-08-30T15:22:53.525Z,25.11
2022-08-30T15:24:56.116Z,24.75
2022-08-30T15:27:00.521Z,25.26
2022-08-30T15:29:03.660Z,25.28
2022-08-30T15:31:09.604Z,25.38
2022-08-30T15:33:12.331Z,25.15
2022-08-30T15:35:15.019Z,25.58
2022-08-30T15:37:22.418Z,25.02
2022-08-30T15:39:25.122Z,24.89
2022-08-30T15:41:29.074Z,24.93
2022-08-30T15:43:32.492Z,25.60
2022-08-30T15:45:43.605Z,25.29
2022-08-30T15:47:46.584Z,24.66
2022-08-30T15:49:57.373Z,25.09
2022-08-30T15:52:04.671Z,24.53
2022-08-30T15:54:07.372Z,24.50
2022-08-30T15:56:21.103Z,24.66
2022-08-30T15:58:23.682Z,24.61
2022-08-30T16:00:26.265Z,24.44
2022-08-30T16:02:28.914Z,24.32
2022-08-30T16:04:31.745Z,24.10
2022-08-30T16:06:37.427Z,24.04
2022-08-30T16:08:41.002Z,23.85
2022-08-30T16:11:15.014Z,23.80
2022-08-30T16:13:18.198Z,23.56
2022-08-30T16:15:20.979Z,22.94
2022-08-30T16:17:24.148Z,23.40
2022-08-30T16:19:27.846Z,23.34
2022-08-30T16:21:34.162Z,22.60
2022-08-30T16:23:39.536Z,23.25
2022-08-30T16:25:42.148Z,22.59
2022-08-30T16:27:45.251Z,22.74
2022-08-30T16:29:47.949Z,23.04
2022-08-30T16:31:52.763Z,22.56
2022-08-30T16:34:02.373Z,23.01
2022-08-30T16:36:06.832Z,22.97
2022-08-30T16:38:09.416Z,23.02
2022-08-30T16:40:12.491Z,22.87
2022-08-30T16:42:20.864Z,22.87
2022-08-30T16:44:24.046Z,22.84
2022-08-30T16:46:33.391Z,22.95
2022-08-30T16:48:36.812Z,22.83
2022-08-30T16:50:43.869Z,22.25
2022-08-30T16:52:46.418Z,22.25
2022-08-30T16:54:52.253Z,22.54
2022-08-30T16:56:55.639Z,22.35
2022-08-30T16:59:01.975Z,22.58
2022-08-30T17:01:10.641Z,22.57
2022-08-30T17:03:13.778Z,22.29
2022-08-30T17:05:16.355Z,21.88
2022-08-30T17:07:22.342Z,22.26
2022-08-30T17:09:25.457Z,22.00
2022-08-30T17:11:28.234Z,22.15
2022-08-30T17:13:31.777Z,22.27
2022-08-30T17:15:35.831Z,22.01
2022-08-30T17:17:39.264Z,22.10
2022-08-30T17:20:15.890Z,22.10
2022-08-30T17:22:18.452Z,21.99
2022-08-30T17:24:24.633Z,21.85
2022-08-30T17:26:28.211Z,21.91
2022-08-30T17:28:31.101Z,21.40
2022-08-30T17:30:33.994Z,21.89
2022-08-30T17:32:36.629Z,21.84
2022-08-30T17:34:39.327Z,21.75
2022-08-30T17:36:42.388Z,21.74
2022-08-30T17:38:46.037Z,21.85
2022-08-30T17:40:48.872Z,22.05
2022-08-30T17:42:52.087Z,21.84
2022-08-30T17:44:55.147Z,22.07
2022-08-30T17:46:58.609Z,21.98
2022-08-30T17:49:03.131Z,22.02
2022-08-30T17:51:15.934Z,21.86
2022-08-30T17:53:18.597Z,21.92
2022-08-30T17:55:21.781Z,21.66
2022-08-30T17:57:25.088Z,21.56
2022-08-30T17:59:31.535Z,21.82
2022-08-30T18:01:35.439Z,21.73
2022-08-30T18:03:38.526Z,21.64
2022-08-30T18:06:05.316Z,21.83
2022-08-30T18:08:08.278Z,21.70
2022-08-30T18:10:13.421Z,21.50
2022-08-30T18:12:16.121Z,21.18
2022-08-30T18:14:26.296Z,21.39
2022-08-30T18:16:35.065Z,21.81
2022-08-30T18:19:09.532Z,21.64
2022-08-30T18:21:14.799Z,21.37
2022-08-30T18:23:17.455Z,21.39
2022-08-30T18:25:30.194Z,21.55
2022-08-30T18:27:32.841Z,21.23
2022-08-30T18:29:41.953Z,21.20
2022-08-30T18:31:45.585Z,21.20
2022-08-30T18:33:48.305Z,21.33
2022-08-30T18:35:57.204Z,21.21
2022-08-30T18:37:59.783Z,20.70
2022-08-30T18:40:03.042Z,21.05
2022-08-30T18:42:06.838Z,21.08
2022-08-30T18:44:26.743Z,20.93
2022-08-30T18:46:30.703Z,20.94
2022-08-30T18:48:35.012Z,20.95
2022-08-30T18:50:40.433Z,20.72
2022-08-30T18:52:45.074Z,20.12
2022-08-30T18:54:53.055Z,20.71
2022-08-30T18:56:56.058Z,20.69
2022-08-30T18:58:58.756Z,19.96
2022-08-30T19:01:02.439Z,20.58
2022-08-30T19:03:06.237Z,20.29
2022-08-30T19:05:08.983Z,19.97
2022-08-30T19:07:15.279Z,20.52
2022-08-30T19:09:17.855Z,20.30
2022-08-30T19:11:20.550Z,19.71
2022-08-30T19:13:23.629Z,19.91
2022-08-30T19:15:27.902Z,19.94
2022-08-30T19:17:30.794Z,20.19
2022-08-30T19:19:35.122Z,19.83
2022-08-30T19:21:39.643Z,19.43
2022-08-30T19:23:42.392Z,20.30
2022-08-30T19:25:45.310Z,20.15
2022-08-30T19:27:54.160Z,20.01
2022-08-30T19:29:57.017Z,20.21
2022-08-30T19:31:59.748Z,19.84
2022-08-30T19:34:10.045Z,20.14
2022-08-30T19:36:12.603Z,19.81
2022-08-30T19:38:15.864Z,19.29
2022-08-30T19:40:21.286Z,19.88
2022-08-30T19:42:23.993Z,19.79
2022-08-30T19:44:26.599Z,19.88
2022-08-30T19:46:30.450Z,19.31
2022-08-30T19:48:39.049Z,19.77
2022-08-30T19:50:48.927Z,19.80
2022-08-30T19:52:54.781Z,19.42
2022-08-30T19:55:02.793Z,19.71
2022-08-30T19:57:20.391Z,19.66
2022-08-30T19:59:23.164Z,19.63
2022-08-30T20:01:32.865Z,19.58
2022-08-30T20:03:38.204Z,19.37
2022-08-30T20:05:42.647Z,19.00
2022-08-30T20:07:51.158Z,19.47
2022-08-30T20:10:47.214Z,19.61
2022-08-30T20:12:50.256Z,19.36
2022-08-30T20:14:53.167Z,19.47
2022-08-30T20:16:59.436Z,19.38
2022-08-30T20:19:08.103Z,19.53
2022-08-30T20:21:13.933Z,19.23
2022-08-30T20:23:19.787Z,19.19
2022-08-30T20:25:25.257Z,18.87
2022-08-30T20:27:28.051Z,19.35
2022-08-30T20:29:30.838Z,19.01
2022-08-30T20:31:34.410Z,19.05
2022-08-30T20:33:38.170Z,19.27
2022-08-30T20:35:48.369Z,19.23
2022-08-30T20:37:51.910Z,18.93
2022-08-30T20:39:57.627Z,18.99
2022-08-30T20:42:00.269Z,19.00
2022-08-30T20:44:06.593Z,18.97
2022-08-30T20:46:19.630Z,18.74
2022-08-30T20:48:23.895Z,18.98
2022-08-30T20:50:53.678Z,18.65
2022-08-30T20:52:56.281Z,18.74
2022-08-30T20:54:58.843Z,18.71
2022-08-30T20:57:11.410Z,18.65
2022-08-30T20:59:14.977Z,18.75
2022-08-30T21:01:19.080Z,18.56
2022-08-30T21:03:29.677Z,18.72
2022-08-30T21:05:37.032Z,18.54
2022-08-30T21:07:41.072Z,18.14
2022-08-30T21:10:37.629Z,18.65
2022-08-30T21:12:40.260Z,18.53
2022-08-30T21:14:42.871Z,18.45
2022-08-30T21:16:45.532Z,18.55
2022-08-30T21:18:48.240Z,17.94
2022-08-30T21:20:50.909Z,18.47
2022-08-30T21:22:53.646Z,17.96
2022-08-30T21:24:56.370Z,17.85
2022-08-30T21:26:59.699Z,18.43
2022-08-30T21:29:02.338Z,18.28
2022-08-30T21:31:26.353Z,18.23
2022-08-30T21:33:28.989Z,18.35
2022-08-30T21:36:04.953Z,18.31
2022-08-30T21:38:08.965Z,18.20
2022-08-30T21:40:14.823Z,18.30
2022-08-30T21:42:18.393Z,18.07
2022-08-30T21:44:24.210Z,17.56
2022-08-30T21:46:29.474Z,17.86
2022-08-30T21:48:32.784Z,18.31
2022-08-30T21:50:42.190Z,18.33
2022-08-30T21:52:44.834Z,18.32
2022-08-30T21:54:48.610Z,18.17
2022-08-30T21:56:53.903Z,17.90
2022-08-30T21:58:56.783Z,17.91
2022-08-30T22:00:59.437Z,18.11
2022-08-30T22:03:02.111Z,18.28
2022-08-30T22:05:05.102Z,17.78
2022-08-30T22:07:33.120Z,18.42
2022-08-30T22:09:36.400Z,18.24
2022-08-30T22:11:39.084Z,18.21
2022-08-30T22:13:45.526Z,18.51
2022-08-30T22:15:50.712Z,18.35
2022-08-30T22:17:54.032Z,18.14
2022-08-30T22:19:56.635Z,18.29
2022-08-30T22:22:00.813Z,18.36
2022-08-30T22:24:04.915Z,18.44
2022-08-30T22:26:10.150Z,18.17
2022-08-30T22:29:03.606Z,18.34
2022-08-30T22:31:11.100Z,18.32
2022-08-30T22:33:16.221Z,17.81
2022-08-30T22:35:19.629Z,18.01
2022-08-30T22:37:22.235Z,18.03
2022-08-30T22:39:25.657Z,18.14
2022-08-30T22:41:31.639Z,17.61
2022-08-30T22:43:34.357Z,17.57
2022-08-30T22:45:38.245Z,18.00
2022-08-30T22:47:41.120Z,17.37
2022-08-30T22:49:43.876Z,17.87
2022-08-30T22:51:46.634Z,17.87
2022-08-30T22:53:50.205Z,17.33
2022-08-30T22:55:52.772Z,17.87
2022-08-30T22:57:55.396Z,17.78
2022-08-30T22:59:58.023Z,17.79
2022-08-30T23:02:00.888Z,17.85
2022-08-30T23:04:09.154Z,17.66
2022-08-30T23:06:11.763Z,17.78
2022-08-30T23:08:14.348Z,17.83
2022-08-30T23:10:17.362Z,17.95
2022-08-30T23:12:19.942Z,17.70
2022-08-30T23:14:23.315Z,17.54
2022-08-30T23:16:25.912Z,17.83
2022-08-30T23:18:28.517Z,17.86
2022-08-30T23:20:31.306Z,17.87
2022-08-30T23:22:34.007Z,17.81
2022-08-30T23:24:55.197Z,17.86
2022-08-30T23:27:17.126Z,17.24
2022-08-30T23:29:39.580Z,17.89
2022-08-30T23:32:02.576Z,17.63
2022-08-30T23:34:23.875Z,17.06
2022-08-30T23:36:44.892Z,17.98
2022-08-30T23:39:05.921Z,17.90
2022-08-30T23:41:32.223Z,17.77
2022-08-30T23:43:55.453Z,18.08
2022-08-30T23:46:19.611Z,17.88
2022-08-30T23:48:41.048Z,17.58
2022-08-30T23:51:12.013Z,17.94
2022-08-30T23:53:43.820Z,17.70
2022-08-30T23:56:05.176Z,17.79
2022-08-30T23:58:27.514Z,17.69
